Time;durP1;ratioP1;P1;durP2;ratioP2;P2;SDS_P1;SDS_P2;PMS_P1;PMS_P2;Temp;Humidity;BMP_temperature;BMP_pressure;BME280_temperature;BME280_humidity;BME280_pressure;Samples;Min_cycle;Max_cycle;Signal;HPM_P1;HPM_P2
2023/01/19 00:00:11;;;;;;;10.70;9.40;;;0.60;97.30;;;;;;5064365;28;20184;-88
2023/01/19 00:02:37;;;;;;;11.20;10.00;;;0.50;97.70;;;;;;5065415;28;20172;-89
2023/01/19 00:05:06;;;;;;;11.87;10.67;;;0.40;98.60;;;;;;5054359;28;20165;-89
2023/01/19 00:07:32;;;;;;;10.73;9.63;;;0.30;99.90;;;;;;5057638;28;20185;-91
2023/01/19 00:09:58;;;;;;;10.00;9.00;;;0.30;99.90;;;;;;5061759;28;20170;-90
2023/01/19 00:12:25;;;;;;;12.17;10.07;;;0.30;99.90;;;;;;5087946;22;20264;-90
2023/01/19 00:14:54;;;;;;;11.93;9.90;;;0.30;99.90;;;;;;5021068;28;20208;-89
2023/01/19 00:17:23;;;;;;;12.03;9.57;;;0.30;99.90;;;;;;5021051;28;20188;-90
2023/01/19 00:20:00;;;;;;;13.57;9.93;;;0.30;99.90;;;;;;5021294;28;20209;-90
2023/01/19 00:22:32;;;;;;;12.43;9.63;;;0.30;99.90;;;;;;5021986;28;20193;-90
2023/01/19 00:25:55;;;;;;;;;;;;;;;;;;;;;
2023/01/19 00:28:24;;;;;;;11.90;9.67;;;0.40;99.90;;;;;;5032907;28;20766;-90
2023/01/19 00:30:50;;;;;;;12.63;9.20;;;0.40;99.90;;;;;;5023012;28;20192;-90
2023/01/19 00:33:22;;;;;;;11.43;9.40;;;0.30;99.90;;;;;;5040015;28;20192;-90
2023/01/19 00:35:57;;;;;;;12.10;8.93;;;0.30;99.90;;;;;;5021856;28;20181;-90
2023/01/19 00:38:23;;;;;;;10.90;9.80;;;0.30;99.90;;;;;;5022303;28;20192;-91
2023/01/19 00:40:49;;;;;;;9.17;8.27;;;0.30;99.90;;;;;;5027267;28;20184;-90
2023/01/19 00:43:15;;;;;;;11.50;8.93;;;0.20;99.90;;;;;;5030495;28;20189;-90
2023/01/19 00:45:41;;;;;;;10.73;9.43;;;0.20;99.90;;;;;;5040523;28;20248;-91
2023/01/19 00:48:09;;;;;;;10.80;9.00;;;0.20;99.90;;;;;;5023012;28;20185;-90
2023/01/19 00:50:35;;;;;;;11.07;9.40;;;0.20;99.90;;;;;;5040485;28;20213;-90
2023/01/19 00:53:01;;;;;;;9.53;8.57;;;0.10;99.90;;;;;;5039817;28;20181;-91
2023/01/19 00:55:28;;;;;;;9.47;8.47;;;0.20;99.90;;;;;;5022789;28;20181;-90
2023/01/19 00:57:54;;;;;;;9.90;8.10;;;0.30;99.90;;;;;;5040005;28;20191;-90
2023/01/19 01:00:20;;;;;;;11.27;8.60;;;0.60;97.90;;;;;;5039989;28;20212;-90
2023/01/19 01:02:47;;;;;;;11.80;8.83;;;0.50;97.80;;;;;;5043948;28;20186;-91
2023/01/19 01:05:13;;;;;;;9.87;8.13;;;0.50;97.90;;;;;;5042612;28;20406;-90
2023/01/19 01:07:44;;;;;;;9.97;8.87;;;0.50;97.90;;;;;;5037296;28;20285;-90
2023/01/19 01:10:21;;;;;;;14.47;9.27;;;0.40;98.90;;;;;;5024621;28;20201;-91
2023/01/19 01:12:48;;;;;;;10.83;9.03;;;0.40;98.30;;;;;;5042359;28;20219;-90
2023/01/19 01:15:16;;;;;;;11.33;8.77;;;0.40;98.90;;;;;;5041707;28;20217;-91
2023/01/19 01:17:47;;;;;;;10.80;8.93;;;0.40;98.80;;;;;;5023981;28;20199;-91
2023/01/19 01:20:16;;;;;;;9.90;8.33;;;0.40;98.60;;;;;;5024865;28;20236;-90
2023/01/19 01:22:46;;;;;;;11.83;9.23;;;0.40;99.10;;;;;;5043265;28;20193;-90
2023/01/19 01:25:14;;;;;;;10.03;8.00;;;0.30;99.50;;;;;;5043123;28;20248;-89
2023/01/19 01:27:41;;;;;;;10.30;8.53;;;0.30;99.80;;;;;;5047197;28;20216;-90
2023/01/19 01:30:08;;;;;;;8.90;7.97;;;0.30;99.90;;;;;;5044612;28;20200;-90
2023/01/19 01:32:34;;;;;;;9.97;8.73;;;0.30;99.50;;;;;;5025889;28;20189;-89
2023/01/19 01:34:59;;;;;;;10.23;8.13;;;0.30;99.10;;;;;;5043216;28;20368;-90
2023/01/19 01:37:25;;;;;;;13.20;7.70;;;0.30;99.30;;;;;;5043591;28;20220;-90
2023/01/19 01:39:51;;;;;;;10.17;9.00;;;0.40;99.00;;;;;;5043680;28;20274;-89
2023/01/19 01:42:18;;;;;;;10.30;8.87;;;0.30;99.10;;;;;;5053601;28;20177;-90
2023/01/19 01:44:50;;;;;;;10.67;8.53;;;0.30;99.00;;;;;;5042958;28;20211;-90
2023/01/19 01:47:46;;;;;;;11.43;8.97;;;0.30;99.80;;;;;;5043353;28;20168;-89
2023/01/19 01:50:21;;;;;;;11.83;8.87;;;0.40;98.90;;;;;;5042605;28;20197;-89
2023/01/19 01:52:56;;;;;;;10.33;8.80;;;0.40;99.40;;;;;;5042961;28;20250;-89
2023/01/19 01:55:26;;;;;;;12.00;10.07;;;0.50;99.20;;;;;;5043149;28;20204;-89
2023/01/19 01:58:01;;;;;;;9.90;8.87;;;0.50;98.80;;;;;;5025180;28;20234;-90
2023/01/19 02:02:49;;;;;;;12.30;9.00;;;0.60;97.90;;;;;;5042789;28;20172;-89
2023/01/19 02:03:13;;;;;;;10.67;8.87;;;0.50;98.50;;;;;;5041693;28;20196;-90
2023/01/19 02:05:40;;;;;;;10.90;8.93;;;0.50;98.70;;;;;;5041519;28;20194;-91
2023/01/19 02:13:50;;;;;;;12.20;10.33;;;0.40;99.20;;;;;;5041719;28;20246;-90
2023/01/19 02:16:21;;;;;;;11.73;9.57;;;0.50;99.20;;;;;;5046355;28;20212;-90
2023/01/19 02:18:47;;;;;;;11.07;9.20;;;0.50;99.80;;;;;;5043741;28;20204;-90
2023/01/19 02:21:18;;;;;;;11.07;9.97;;;0.50;99.60;;;;;;5029305;28;20189;-90
2023/01/19 02:23:50;;;;;;;10.13;9.23;;;0.50;99.90;;;;;;5057772;28;20165;-89
2023/01/19 02:26:22;;;;;;;10.90;9.80;;;0.50;99.10;;;;;;5057519;28;20169;-90
2023/01/19 02:28:56;;;;;;;11.37;9.40;;;0.50;99.50;;;;;;5046063;28;20196;-90
2023/01/19 02:31:23;;;;;;;10.53;9.13;;;0.50;99.60;;;;;;5049870;28;20253;-90
2023/01/19 02:33:51;;;;;;;10.67;9.17;;;0.60;99.40;;;;;;5040855;28;20231;-90
2023/01/19 02:36:22;;;;;;;12.70;10.23;;;0.70;97.50;;;;;;5025499;28;20192;-90
2023/01/19 02:38:52;;;;;;;11.90;10.03;;;0.60;98.80;;;;;;5042732;28;20231;-90
2023/01/19 02:41:21;;;;;;;14.20;10.13;;;0.50;98.70;;;;;;5042770;28;20181;-91
2023/01/19 02:43:48;;;;;;;11.83;10.00;;;0.50;98.50;;;;;;5031206;28;20208;-91
2023/01/19 02:46:14;;;;;;;13.33;10.43;;;0.50;98.80;;;;;;5027742;28;20662;-91
2023/01/19 02:48:45;;;;;;;12.63;9.90;;;0.50;98.90;;;;;;5024417;28;20201;-90
2023/01/19 02:51:15;;;;;;;11.23;9.90;;;0.50;99.20;;;;;;5043162;28;20200;-90
2023/01/19 02:54:25;;;;;;;16.83;10.60;;;0.50;99.70;;;;;;5042415;28;20205;-91
2023/01/19 02:57:28;;;;;;;11.90;9.47;;;0.50;99.60;;;;;;5023387;28;20882;-90
2023/01/19 03:00:12;;;;;;;11.70;10.47;;;0.40;99.00;;;;;;5042213;28;20205;-90
2023/01/19 03:02:53;;;;;;;12.20;9.33;;;0.40;99.60;;;;;;5022051;28;20178;-89
2023/01/19 03:05:32;;;;;;;13.13;10.87;;;0.40;99.90;;;;;;5039465;28;20177;-90
2023/01/19 03:08:05;;;;;;;12.17;10.50;;;0.40;99.90;;;;;;5041334;28;20176;-90
2023/01/19 03:10:40;;;;;;;11.60;9.37;;;0.50;99.90;;;;;;5042861;28;20245;-91
2023/01/19 03:13:09;;;;;;;13.20;9.83;;;0.50;99.20;;;;;;5041876;28;20204;-90
2023/01/19 03:15:50;;;;;;;11.37;10.17;;;0.60;99.30;;;;;;5040981;28;20177;-90
2023/01/19 03:18:20;;;;;;;11.03;9.83;;;0.60;99.40;;;;;;5041827;28;20216;-90
2023/01/19 03:20:54;;;;;;;13.40;11.17;;;0.40;99.90;;;;;;5047479;28;20194;-90
2023/01/19 03:23:23;;;;;;;13.23;9.53;;;0.50;99.70;;;;;;5029194;28;20238;-91
2023/01/19 03:25:54;;;;;;;12.70;10.33;;;0.50;99.60;;;;;;5042701;28;20185;-90
2023/01/19 03:28:25;;;;;;;11.80;10.57;;;0.40;99.90;;;;;;5041409;28;20201;-90
2023/01/19 03:31:09;;;;;;;11.50;10.30;;;0.50;99.60;;;;;;5042288;28;20188;-89
2023/01/19 03:33:39;;;;;;;11.97;10.20;;;0.40;99.40;;;;;;5042512;28;20285;-91
2023/01/19 03:36:13;;;;;;;11.93;10.30;;;0.50;99.70;;;;;;5041598;28;20181;-90
2023/01/19 03:38:42;;;;;;;10.93;9.83;;;0.60;99.10;;;;;;5023848;28;20256;-90
2023/01/19 03:41:12;;;;;;;11.33;10.17;;;0.50;97.70;;;;;;5022964;28;20188;-91
2023/01/19 03:43:38;;;;;;;11.60;9.17;;;0.60;97.10;;;;;;5041414;28;20215;-90
2023/01/19 03:46:06;;;;;;;11.33;9.93;;;0.70;97.00;;;;;;5041347;28;20183;-89
2023/01/19 03:48:32;;;;;;;12.90;9.87;;;0.80;96.80;;;;;;5041252;28;20211;-92
2023/01/19 03:51:06;;;;;;;14.73;10.07;;;0.80;96.70;;;;;;5041045;28;20177;-91
2023/01/19 03:53:32;;;;;;;13.07;9.63;;;0.70;97.20;;;;;;5023170;28;20206;-90
2023/01/19 03:55:58;;;;;;;11.60;9.70;;;0.80;98.00;;;;;;5045340;28;20212;-90
2023/01/19 03:58:24;;;;;;;14.90;10.30;;;0.70;97.50;;;;;;5039330;28;20215;-90
2023/01/19 04:00:50;;;;;;;12.33;10.47;;;0.70;97.80;;;;;;5039169;28;20606;-90
2023/01/19 04:03:17;;;;;;;11.33;9.80;;;0.70;98.90;;;;;;5021146;28;20760;-89
2023/01/19 04:05:43;;;;;;;13.43;10.83;;;0.70;98.70;;;;;;5038577;28;20168;-90
2023/01/19 04:08:09;;;;;;;12.33;9.67;;;0.70;99.30;;;;;;5039058;28;20345;-90
2023/01/19 04:10:35;;;;;;;17.40;15.63;;;0.80;98.90;;;;;;5021167;28;20645;-91
2023/01/19 04:13:02;;;;;;;11.87;10.57;;;0.80;99.10;;;;;;5022434;28;20192;-90
2023/01/19 04:15:29;;;;;;;13.17;10.10;;;0.80;99.00;;;;;;5040128;28;20216;-91
2023/01/19 04:17:59;;;;;;;10.73;9.37;;;0.70;99.30;;;;;;5040629;28;20188;-90
2023/01/19 04:20:26;;;;;;;11.30;10.10;;;0.70;99.90;;;;;;5040794;28;20173;-91
2023/01/19 04:22:53;;;;;;;11.20;10.10;;;0.80;98.90;;;;;;5040608;28;20165;-91
2023/01/19 04:25:20;;;;;;;13.27;10.80;;;0.80;98.80;;;;;;5022399;28;20181;-90
2023/01/19 04:27:46;;;;;;;12.77;10.30;;;0.70;98.80;;;;;;5038128;28;20357;-91
2023/01/19 04:30:12;;;;;;;14.20;10.40;;;0.70;99.30;;;;;;5022735;28;20243;-91
2023/01/19 04:32:37;;;;;;;11.90;10.40;;;0.70;99.00;;;;;;5038772;28;20189;-91
2023/01/19 04:35:03;;;;;;;11.70;10.37;;;0.70;99.00;;;;;;5038078;28;20208;-91
2023/01/19 04:37:29;;;;;;;14.03;11.07;;;0.60;98.70;;;;;;5036277;28;20597;-89
2023/01/19 04:39:55;;;;;;;14.53;11.57;;;0.60;99.70;;;;;;5037848;28;20201;-91
2023/01/19 04:42:21;;;;;;;13.27;11.30;;;0.40;99.70;;;;;;5022215;28;20235;-92
2023/01/19 04:44:47;;;;;;;12.33;10.50;;;0.30;99.90;;;;;;5038634;28;20181;-91
2023/01/19 04:47:14;;;;;;;12.07;10.50;;;0.30;99.90;;;;;;5038181;28;20271;-92
2023/01/19 04:49:39;;;;;;;12.20;10.50;;;0.30;99.90;;;;;;5039184;28;20764;-91
2023/01/19 04:52:05;;;;;;;12.03;10.70;;;0.40;99.70;;;;;;5039413;28;20267;-90
2023/01/19 04:54:31;;;;;;;13.87;11.23;;;0.40;99.90;;;;;;5018015;28;20215;-92
2023/01/19 04:56:57;;;;;;;12.57;10.40;;;0.40;99.90;;;;;;5032208;28;20217;-91
2023/01/19 04:59:23;;;;;;;11.60;9.57;;;0.30;99.70;;;;;;5028204;28;20708;-90
2023/01/19 05:01:48;;;;;;;13.23;11.33;;;0.40;99.90;;;;;;5030663;28;20280;-92
2023/01/19 05:04:14;;;;;;;11.20;9.90;;;0.40;99.90;;;;;;5015319;28;20187;-91
2023/01/19 05:06:40;;;;;;;11.67;10.30;;;0.40;99.70;;;;;;5031093;28;20215;-92
2023/01/19 05:09:07;;;;;;;12.40;10.27;;;0.40;99.90;;;;;;5033084;28;20209;-91
2023/01/19 05:11:34;;;;;;;10.97;9.53;;;0.50;99.50;;;;;;5033866;28;20181;-91
2023/01/19 05:14:00;;;;;;;12.57;10.90;;;0.50;99.30;;;;;;5018568;28;20213;-91
2023/01/19 05:16:25;;;;;;;13.47;9.77;;;0.40;99.90;;;;;;5035170;28;20200;-90
2023/01/19 05:18:51;;;;;;;12.17;10.90;;;0.40;99.90;;;;;;5033895;28;20742;-90
2023/01/19 05:21:17;;;;;;;12.87;10.37;;;0.30;99.90;;;;;;5033829;28;20178;-90
2023/01/19 05:23:43;;;;;;;12.20;9.73;;;0.20;99.90;;;;;;5033218;28;20188;-90
2023/01/19 05:26:09;;;;;;;12.17;10.77;;;0.30;99.90;;;;;;5032678;28;20669;-90
2023/01/19 05:28:34;;;;;;;12.07;10.20;;;0.30;99.90;;;;;;5016337;28;20210;-91
2023/01/19 05:31:04;;;;;;;14.73;9.87;;;0.40;99.10;;;;;;5017870;28;20248;-90
2023/01/19 05:33:29;;;;;;;11.00;9.83;;;0.50;99.40;;;;;;5046506;28;20593;-90
2023/01/19 05:35:55;;;;;;;12.50;10.20;;;0.50;98.50;;;;;;5014201;28;20215;-91
2023/01/19 05:38:21;;;;;;;13.40;10.57;;;0.50;98.90;;;;;;5031658;28;20209;-89
2023/01/19 05:40:47;;;;;;;10.93;9.77;;;0.50;98.30;;;;;;5037624;28;20208;-89
2023/01/19 05:43:13;;;;;;;13.10;10.27;;;0.50;98.90;;;;;;5014354;28;20688;-90
2023/01/19 05:45:40;;;;;;;11.83;9.63;;;0.50;98.30;;;;;;5032029;28;20173;-90
2023/01/19 05:48:11;;;;;;;11.30;9.80;;;0.40;99.60;;;;;;5019344;28;20195;-90
2023/01/19 05:50:37;;;;;;;16.43;10.00;;;0.30;99.80;;;;;;5032534;28;20278;-91
2023/01/19 05:53:02;;;;;;;12.23;9.13;;;0.30;99.80;;;;;;5040035;28;20161;-91
2023/01/19 05:55:31;;;;;;;16.27;10.20;;;0.30;99.90;;;;;;5038473;28;20396;-90
2023/01/19 05:57:57;;;;;;;13.47;10.77;;;0.10;99.90;;;;;;5035700;28;20866;-90
2023/01/19 06:00:23;;;;;;;13.40;10.67;;;0.10;99.90;;;;;;5025147;28;20181;-90
2023/01/19 06:02:49;;;;;;;11.23;9.90;;;0.10;99.90;;;;;;5042739;28;20196;-89
2023/01/19 06:05:15;;;;;;;11.07;9.27;;;0.30;99.90;;;;;;5047073;28;20212;-89
2023/01/19 06:07:41;;;;;;;11.03;9.57;;;0.30;99.50;;;;;;5039694;28;20180;-89
2023/01/19 06:10:08;;;;;;;11.87;8.93;;;0.30;99.90;;;;;;5038949;28;20283;-90
2023/01/19 06:12:33;;;;;;;11.13;9.50;;;0.40;99.30;;;;;;5038099;28;20205;-89
2023/01/19 06:14:59;;;;;;;13.80;9.13;;;0.30;99.90;;;;;;5037612;28;20224;-90
2023/01/19 06:17:25;;;;;;;11.67;10.03;;;0.20;99.90;;;;;;5020347;28;20193;-90
2023/01/19 06:19:51;;;;;;;12.57;9.73;;;0.30;99.90;;;;;;5020969;28;20196;-89
2023/01/19 06:22:16;;;;;;;11.70;9.77;;;0.30;99.90;;;;;;5039055;28;20191;-89
2023/01/19 06:24:42;;;;;;;11.43;9.80;;;0.30;99.90;;;;;;5039036;28;20185;-87
2023/01/19 06:27:08;;;;;;;13.67;10.07;;;0.30;99.90;;;;;;5039878;28;20183;-90
2023/01/19 06:29:34;;;;;;;11.40;8.80;;;0.50;99.70;;;;;;5039231;28;20707;-90
2023/01/19 06:32:03;;;;;;;15.03;9.63;;;0.60;98.90;;;;;;5021906;28;20248;-90
2023/01/19 06:34:28;;;;;;;12.33;9.03;;;0.40;99.90;;;;;;5042739;28;20734;-90
2023/01/19 06:36:59;;;;;;;13.70;9.23;;;0.40;99.90;;;;;;5039320;28;20209;-91
2023/01/19 06:39:26;;;;;;;11.37;9.47;;;0.40;99.90;;;;;;5039835;28;20205;-91
2023/01/19 06:41:52;;;;;;;10.80;9.67;;;0.50;99.80;;;;;;5039580;28;20309;-91
2023/01/19 06:44:17;;;;;;;12.47;9.40;;;0.50;99.70;;;;;;5039359;28;20235;-91
2023/01/19 06:46:43;;;;;;;11.13;9.57;;;0.50;99.50;;;;;;5019381;28;20185;-91
2023/01/19 06:49:09;;;;;;;11.13;9.93;;;0.40;99.90;;;;;;5000417;28;20884;-92
2023/01/19 06:51:34;;;;;;;12.40;9.57;;;0.40;99.90;;;;;;5019066;28;20196;-91
2023/01/19 06:54:00;;;;;;;12.87;9.80;;;0.50;99.90;;;;;;5020116;28;20291;-91
2023/01/19 06:56:26;;;;;;;12.73;9.83;;;0.40;99.90;;;;;;5017497;28;20259;-91
2023/01/19 06:58:52;;;;;;;12.00;10.23;;;0.30;99.90;;;;;;5018150;28;20209;-91
2023/01/19 07:01:18;;;;;;;10.90;9.70;;;0.40;99.90;;;;;;5018989;28;20173;-90
2023/01/19 07:03:44;;;;;;;11.60;9.47;;;0.50;99.90;;;;;;5015223;28;20602;-90
2023/01/19 07:06:10;;;;;;;10.43;9.33;;;0.40;99.90;;;;;;5017931;28;20299;-90
2023/01/19 07:08:37;;;;;;;12.37;9.53;;;0.50;99.90;;;;;;5031416;28;20304;-91
2023/01/19 07:11:05;;;;;;;11.37;8.70;;;0.60;99.60;;;;;;5024354;28;20172;-91
2023/01/19 07:13:32;;;;;;;12.23;9.17;;;0.50;99.90;;;;;;5020309;28;21197;-91
2023/01/19 07:16:02;;;;;;;12.87;9.30;;;0.40;99.90;;;;;;5033036;28;21239;-91
2023/01/19 07:18:28;;;;;;;11.03;9.90;;;0.40;99.90;;;;;;5022460;28;20208;-90
2023/01/19 07:20:58;;;;;;;12.13;9.63;;;0.40;99.90;;;;;;5018609;28;20575;-90
2023/01/19 07:23:24;;;;;;;13.90;9.63;;;0.30;99.90;;;;;;5019547;28;20271;-91
2023/01/19 07:25:53;;;;;;;14.10;10.43;;;0.30;99.90;;;;;;5018389;28;20617;-92
2023/01/19 07:28:19;;;;;;;10.27;9.10;;;0.30;99.90;;;;;;5021015;28;20219;-91
2023/01/19 07:30:49;;;;;;;12.63;8.73;;;0.40;99.90;;;;;;5018440;28;20203;-91
2023/01/19 07:33:15;;;;;;;12.90;9.43;;;0.40;99.90;;;;;;5022562;28;20212;-91
2023/01/19 07:35:46;;;;;;;9.50;8.47;;;0.50;99.90;;;;;;5015974;28;20259;-91
2023/01/19 07:38:12;;;;;;;13.23;8.97;;;0.60;99.40;;;;;;5017453;28;20275;-91
2023/01/19 07:40:37;;;;;;;14.73;9.87;;;0.50;97.90;;;;;;5020366;28;20189;-90
2023/01/19 07:43:03;;;;;;;10.43;8.93;;;0.50;98.70;;;;;;5025525;28;20720;-91
2023/01/19 07:45:29;;;;;;;9.83;8.10;;;0.50;99.40;;;;;;5017815;28;20192;-91
2023/01/19 07:47:54;;;;;;;10.23;8.73;;;0.50;99.40;;;;;;5018349;28;20873;-91
2023/01/19 07:50:23;;;;;;;11.07;7.97;;;0.60;98.00;;;;;;5020886;28;20209;-92
2023/01/19 07:52:51;;;;;;;10.43;8.13;;;0.70;97.20;;;;;;5001181;28;20181;-91
2023/01/19 07:55:18;;;;;;;10.07;8.43;;;0.70;96.80;;;;;;5012104;28;20216;-91
2023/01/19 07:57:44;;;;;;;13.10;9.23;;;0.70;97.00;;;;;;5020416;28;20184;-91
2023/01/19 08:00:10;;;;;;;11.80;8.57;;;0.70;97.60;;;;;;5021892;28;20205;-91
2023/01/19 08:02:36;;;;;;;8.83;7.63;;;0.60;96.40;;;;;;5000813;28;20330;-91
2023/01/19 08:05:02;;;;;;;10.93;8.43;;;0.70;96.70;;;;;;5018902;28;20181;-90
2023/01/19 08:07:28;;;;;;;9.37;7.87;;;0.60;98.10;;;;;;5005488;28;20252;-91
2023/01/19 08:09:57;;;;;;;9.53;8.53;;;0.70;96.70;;;;;;5018273;28;21362;-91
2023/01/19 08:12:54;;;;;;;8.27;7.37;;;0.80;96.50;;;;;;5019155;28;20208;-90
2023/01/19 08:15:28;;;;;;;9.90;8.20;;;0.70;96.50;;;;;;4999957;28;20219;-91
2023/01/19 08:17:58;;;;;;;9.80;7.87;;;0.80;95.50;;;;;;5013321;28;20185;-90
2023/01/19 08:20:27;;;;;;;11.63;8.80;;;0.80;95.90;;;;;;5008050;28;20185;-91
2023/01/19 08:23:01;;;;;;;9.30;7.90;;;0.70;96.40;;;;;;5032695;28;20200;-92
2023/01/19 08:25:34;;;;;;;9.27;7.73;;;0.80;95.90;;;;;;5009121;28;20299;-92
2023/01/19 08:28:00;;;;;;;10.67;7.40;;;0.90;95.30;;;;;;5021198;28;20211;-91
2023/01/19 08:30:34;;;;;;;9.77;8.80;;;1.00;94.60;;;;;;5004559;28;20208;-92
2023/01/19 08:33:13;;;;;;;8.33;7.43;;;0.90;96.20;;;;;;5020689;28;20177;-91
2023/01/19 08:35:46;;;;;;;9.00;8.10;;;1.00;95.70;;;;;;4995606;28;20233;-91
2023/01/19 08:38:29;;;;;;;9.27;8.27;;;1.00;96.10;;;;;;5024551;28;20367;-92
2023/01/19 08:40:55;;;;;;;9.87;8.03;;;0.90;96.90;;;;;;5003953;28;20235;-91
2023/01/19 08:43:23;;;;;;;10.27;8.00;;;1.00;96.20;;;;;;5020706;28;20244;-91
2023/01/19 08:45:51;;;;;;;11.17;8.70;;;1.00;97.10;;;;;;5013682;28;20304;-92
2023/01/19 08:48:23;;;;;;;11.87;9.10;;;1.10;95.80;;;;;;5021296;28;20246;-91
2023/01/19 08:50:50;;;;;;;8.80;7.67;;;1.00;94.90;;;;;;5004599;28;20327;-91
2023/01/19 08:53:16;;;;;;;11.40;8.37;;;0.90;96.40;;;;;;5021757;28;20236;-91
2023/01/19 08:55:42;;;;;;;9.37;7.77;;;1.00;95.00;;;;;;5016567;28;20200;-92
2023/01/19 08:58:08;;;;;;;7.63;6.90;;;1.00;94.40;;;;;;5024899;28;20995;-92
2023/01/19 09:00:39;;;;;;;10.50;8.07;;;1.00;94.60;;;;;;5007575;28;20784;-90
2023/01/19 09:03:06;;;;;;;8.50;7.30;;;0.90;96.40;;;;;;5022908;28;20185;-91
2023/01/19 09:05:36;;;;;;;8.43;7.63;;;0.90;96.80;;;;;;5023635;28;20188;-90
2023/01/19 09:08:02;;;;;;;8.93;7.93;;;0.90;96.30;;;;;;5033450;28;20193;-89
2023/01/19 09:10:34;;;;;;;9.80;7.60;;;0.90;96.70;;;;;;5025579;28;20207;-90
2023/01/19 09:12:59;;;;;;;10.23;7.63;;;1.00;96.30;;;;;;5006672;28;20223;-92
2023/01/19 09:15:28;;;;;;;8.20;7.30;;;1.00;96.10;;;;;;5025174;28;20212;-90
2023/01/19 09:17:54;;;;;;;9.57;7.60;;;1.00;96.00;;;;;;5027760;28;20669;-88
2023/01/19 09:20:19;;;;;;;9.57;8.10;;;1.10;95.20;;;;;;5022258;28;20283;-90
2023/01/19 09:22:46;;;;;;;9.00;6.77;;;1.10;94.80;;;;;;5009034;28;20221;-89
2023/01/19 09:25:12;;;;;;;10.10;8.10;;;1.10;95.10;;;;;;5027380;28;20605;-89
2023/01/19 09:27:37;;;;;;;10.37;7.80;;;1.10;95.00;;;;;;5027555;28;20986;-90
2023/01/19 09:30:05;;;;;;;8.53;7.70;;;1.10;95.60;;;;;;5029938;28;20771;-89
2023/01/19 09:32:31;;;;;;;9.63;7.57;;;1.30;93.80;;;;;;5034613;28;20217;-90
2023/01/19 09:34:58;;;;;;;9.10;7.53;;;1.30;93.10;;;;;;5025208;28;20228;-90
2023/01/19 09:37:23;;;;;;;8.60;7.03;;;1.30;93.90;;;;;;5026989;28;20189;-90
2023/01/19 09:39:49;;;;;;;9.07;7.17;;;1.50;92.60;;;;;;5026499;28;20563;-90
2023/01/19 09:42:25;;;;;;;8.93;7.40;;;1.40;92.40;;;;;;5006206;28;20181;-91
2023/01/19 09:44:52;;;;;;;8.53;7.63;;;1.40;93.30;;;;;;5019992;28;20192;-89
2023/01/19 09:47:23;;;;;;;8.60;7.50;;;1.40;94.40;;;;;;5004916;28;20275;-91
2023/01/19 09:49:57;;;;;;;12.33;7.50;;;1.40;93.40;;;;;;5025308;28;20243;-90
2023/01/19 09:52:23;;;;;;;9.10;7.97;;;1.30;93.60;;;;;;5022305;28;20219;-90
2023/01/19 09:54:53;;;;;;;8.87;7.60;;;1.30;93.40;;;;;;5024050;28;20211;-91
2023/01/19 09:57:21;;;;;;;8.47;7.43;;;1.30;94.00;;;;;;5029069;28;20181;-90
2023/01/19 09:59:49;;;;;;;9.97;8.03;;;1.40;93.00;;;;;;5027250;28;20200;-91
2023/01/19 10:02:36;;;;;;;8.23;7.00;;;1.40;92.40;;;;;;5024959;28;20188;-89
2023/01/19 10:05:31;;;;;;;10.63;7.53;;;1.40;92.40;;;;;;5023469;28;20181;-91
2023/01/19 10:08:24;;;;;;;8.93;7.40;;;1.40;92.20;;;;;;5007308;28;20319;-90
2023/01/19 10:10:55;;;;;;;8.97;7.30;;;1.30;94.70;;;;;;5024793;28;20180;-89
2023/01/19 10:13:29;;;;;;;9.57;8.23;;;1.10;95.20;;;;;;5006673;28;20279;-91
2023/01/19 10:16:21;;;;;;;9.90;7.33;;;1.20;95.50;;;;;;5026968;28;20179;-90
2023/01/19 10:18:50;;;;;;;7.77;6.97;;;1.30;94.60;;;;;;5009016;28;20227;-93
2023/01/19 10:21:42;;;;;;;13.00;8.20;;;1.30;97.00;;;;;;5027143;28;20231;-91
2023/01/19 10:24:17;;;;;;;9.53;8.43;;;1.00;99.90;;;;;;5023735;28;20240;-89
2023/01/19 10:26:48;;;;;;;8.50;7.67;;;0.90;99.90;;;;;;5005280;28;20192;-89
2023/01/19 10:29:35;;;;;;;10.20;8.90;;;0.90;99.90;;;;;;5009365;28;20213;-91
2023/01/19 10:32:08;;;;;;;9.53;8.00;;;0.90;99.90;;;;;;5025617;28;20185;-90
2023/01/19 10:34:34;;;;;;;9.80;8.37;;;0.90;99.90;;;;;;5003343;28;20205;-90
2023/01/19 10:37:14;;;;;;;14.40;9.27;;;1.00;99.90;;;;;;5003683;28;20613;-90
2023/01/19 10:39:41;;;;;;;10.20;8.97;;;1.00;99.90;;;;;;5021612;28;20642;-89
2023/01/19 10:42:13;;;;;;;13.80;8.83;;;1.10;99.90;;;;;;5004833;28;20181;-91
2023/01/19 10:44:40;;;;;;;9.73;8.73;;;1.20;99.90;;;;;;5023325;28;20170;-91
2023/01/19 10:47:18;;;;;;;10.90;8.07;;;1.10;99.90;;;;;;5026399;28;20189;-91
2023/01/19 10:49:45;;;;;;;9.57;8.20;;;1.20;99.50;;;;;;5029093;28;20231;-90
2023/01/19 10:52:32;;;;;;;9.87;8.17;;;1.20;99.20;;;;;;5031433;28;20275;-91
2023/01/19 10:54:59;;;;;;;9.53;7.93;;;1.30;99.20;;;;;;5032968;28;20303;-91
2023/01/19 10:57:37;;;;;;;15.00;8.60;;;1.30;98.90;;;;;;5012918;28;20189;-90
2023/01/19 11:00:26;;;;;;;9.60;7.57;;;1.40;97.80;;;;;;5030586;28;20569;-89
2023/01/19 11:02:52;;;;;;;9.93;8.13;;;1.40;97.40;;;;;;5028486;28;20192;-89
2023/01/19 11:05:26;;;;;;;8.80;7.77;;;1.50;96.80;;;;;;5024341;28;20251;-91
2023/01/19 11:07:52;;;;;;;10.80;7.93;;;1.40;96.80;;;;;;5028308;28;20252;-92
2023/01/19 11:10:29;;;;;;;9.90;8.57;;;1.30;98.20;;;;;;5009649;28;20245;-90
2023/01/19 11:13:02;;;;;;;9.20;8.30;;;1.30;98.10;;;;;;5028427;28;20203;-91
2023/01/19 11:15:56;;;;;;;10.53;8.03;;;1.30;97.80;;;;;;5040487;28;20235;-93
2023/01/19 11:18:32;;;;;;;11.47;8.13;;;1.30;98.10;;;;;;5004017;28;20286;-92
2023/01/19 11:21:05;;;;;;;10.90;8.50;;;1.40;97.60;;;;;;5019681;28;20196;-91
2023/01/19 11:23:52;;;;;;;11.37;8.63;;;1.50;96.90;;;;;;5024068;28;20220;-93
2023/01/19 11:26:30;;;;;;;10.90;8.73;;;1.40;97.00;;;;;;5010618;28;20193;-91
2023/01/19 11:28:57;;;;;;;9.53;8.53;;;1.40;97.50;;;;;;5025886;28;20220;-90
2023/01/19 11:31:33;;;;;;;10.73;8.10;;;1.50;97.40;;;;;;5006670;28;20285;-90
2023/01/19 11:34:04;;;;;;;8.73;7.73;;;1.40;96.90;;;;;;5019980;28;20893;-91
2023/01/19 11:36:34;;;;;;;9.97;8.43;;;1.50;97.70;;;;;;5024377;28;20208;-89
2023/01/19 11:39:25;;;;;;;9.00;8.10;;;1.60;97.30;;;;;;5023992;28;20213;-90
2023/01/19 11:41:59;;;;;;;10.37;8.30;;;1.60;97.10;;;;;;5024842;28;20204;-89
2023/01/19 11:44:28;;;;;;;11.67;8.70;;;1.60;97.00;;;;;;5007486;28;20597;-91
2023/01/19 11:46:57;;;;;;;10.20;8.47;;;1.60;97.10;;;;;;5022638;28;20362;-90
2023/01/19 11:49:42;;;;;;;11.30;8.60;;;1.50;96.60;;;;;;5011292;28;20220;-90
2023/01/19 11:52:26;;;;;;;9.83;7.27;;;1.60;97.00;;;;;;5012023;28;20207;-89
2023/01/19 11:55:13;;;;;;;9.00;7.53;;;1.70;97.30;;;;;;5023498;28;20192;-90
2023/01/19 11:57:46;;;;;;;8.53;7.63;;;1.80;94.60;;;;;;5017606;28;20207;-92
2023/01/19 12:00:35;;;;;;;8.53;7.30;;;1.90;96.20;;;;;;5025584;28;20254;-94
2023/01/19 12:03:24;;;;;;;8.63;7.83;;;1.90;93.60;;;;;;5008231;28;20188;-91
2023/01/19 12:05:56;;;;;;;8.47;7.57;;;1.90;95.10;;;;;;5011633;28;20888;-91
2023/01/19 12:08:33;;;;;;;8.80;7.90;;;1.70;95.10;;;;;;5014939;28;20200;-93
2023/01/19 12:11:01;;;;;;;10.67;7.67;;;1.60;96.20;;;;;;5029025;28;20207;-90
2023/01/19 12:13:29;;;;;;;9.53;7.93;;;1.80;95.00;;;;;;5034590;28;20251;-90
2023/01/19 12:16:01;;;;;;;9.93;8.10;;;1.90;94.20;;;;;;5007675;28;20371;-91
2023/01/19 12:18:34;;;;;;;8.73;7.33;;;1.90;94.50;;;;;;5030020;28;20197;-93
2023/01/19 12:21:00;;;;;;;9.33;8.00;;;2.00;93.20;;;;;;5025686;28;20181;-91
2023/01/19 12:23:45;;;;;;;9.77;8.30;;;1.90;95.70;;;;;;5007954;28;20166;-93
2023/01/19 12:26:32;;;;;;;9.73;8.47;;;1.80;95.10;;;;;;5024075;28;20195;-92
2023/01/19 12:29:04;;;;;;;10.30;8.30;;;1.80;95.90;;;;;;5030105;28;20212;-90
2023/01/19 12:31:33;;;;;;;8.63;7.73;;;1.90;95.90;;;;;;5026222;28;20725;-93
2023/01/19 12:34:34;;;;;;;9.23;8.07;;;2.10;92.90;;;;;;5024144;28;20243;-90
2023/01/19 12:37:05;;;;;;;8.67;7.80;;;2.10;94.50;;;;;;5003851;28;20227;-92
2023/01/19 12:39:32;;;;;;;9.53;8.53;;;2.00;94.70;;;;;;5008203;28;20208;-90
2023/01/19 12:42:16;;;;;;;10.00;8.50;;;2.00;95.30;;;;;;5022154;28;20655;-91
2023/01/19 12:44:44;;;;;;;10.13;7.70;;;2.10;94.40;;;;;;5021714;28;20200;-90
2023/01/19 12:47:11;;;;;;;11.23;8.90;;;2.10;94.50;;;;;;5025888;28;20641;-88
2023/01/19 12:49:37;;;;;;;9.67;8.57;;;1.90;96.30;;;;;;5002905;28;20562;-91
2023/01/19 12:52:20;;;;;;;12.57;9.07;;;1.90;97.70;;;;;;5023879;28;20185;-93
2023/01/19 12:54:57;;;;;;;10.47;8.90;;;1.80;97.30;;;;;;5022658;28;20197;-89
2023/01/19 12:57:29;;;;;;;10.00;8.13;;;2.00;95.90;;;;;;5023579;28;20911;-91
2023/01/19 13:00:00;;;;;;;9.30;7.80;;;2.10;94.60;;;;;;5025754;28;20205;-90
2023/01/19 13:02:26;;;;;;;10.30;8.60;;;2.10;94.80;;;;;;5022755;28;20272;-90
2023/01/19 13:05:30;;;;;;;13.40;9.07;;;2.10;95.00;;;;;;5018300;28;20192;-90
2023/01/19 13:08:05;;;;;;;9.73;8.50;;;2.00;96.20;;;;;;5002685;28;20207;-91
2023/01/19 13:10:59;;;;;;;10.27;8.97;;;2.00;95.10;;;;;;5023732;28;20219;-90